sensor_id;sensor_type;location;lat;lon;timestamp;pressure;altitude;pressure_sealevel;temperature;humidity
65280;BME280;51878;55.748;48.742;2023-08-21T00:04:24;98711.97;;;14.72;100.00
65280;BME280;51878;55.748;48.742;2023-08-21T00:09:28;98727.66;;;14.76;100.00
65280;BME280;51878;55.748;48.742;2023-08-21T00:14:31;98694.88;;;14.46;100.00
65280;BME280;51878;55.748;48.742;2023-08-21T00:19:33;98697.56;;;14.34;100.00
65280;BME280;51878;55.748;48.742;2023-08-21T00:24:35;98733.91;;;14.46;100.00
65280;BME280;51878;55.748;48.742;2023-08-21T00:29:38;98677.06;;;14.13;100.00
65280;BME280;51878;55.748;48.742;2023-08-21T00:34:40;98722.91;;;14.35;100.00
65280;BME280;51878;55.748;48.742;2023-08-21T00:39:42;98709.84;;;14.25;100.00
65280;BME280;51878;55.748;48.742;2023-08-21T00:44:45;98679.19;;;14.11;100.00
65280;BME280;51878;55.748;48.742;2023-08-21T00:49:47;98725.47;;;14.18;100.00
65280;BME280;51878;55.748;48.742;2023-08-21T00:54:50;98731.81;;;14.12;100.00
65280;BME280;51878;55.748;48.742;2023-08-21T00:59:52;98706.19;;;14.13;100.00
65280;BME280;51878;55.748;48.742;2023-08-21T01:04:54;98726.19;;;14.06;100.00
65280;BME280;51878;55.748;48.742;2023-08-21T01:10:16;98722.19;;;14.09;100.00
65280;BME280;51878;55.748;48.742;2023-08-21T01:15:24;98667.41;;;13.80;100.00
65280;BME280;51878;55.748;48.742;2023-08-21T01:20:27;98689.25;;;13.92;100.00
65280;BME280;51878;55.748;48.742;2023-08-21T01:25:29;98691.53;;;13.77;100.00
65280;BME280;51878;55.748;48.742;2023-08-21T01:30:32;98711.66;;;13.94;100.00
65280;BME280;51878;55.748;48.742;2023-08-21T01:35:36;98716.50;;;13.92;100.00
65280;BME280;51878;55.748;48.742;2023-08-21T01:40:39;98647.34;;;13.56;100.00
65280;BME280;51878;55.748;48.742;2023-08-21T01:45:42;98723.53;;;14.00;100.00
65280;BME280;51878;55.748;48.742;2023-08-21T01:50:44;98652.84;;;13.50;100.00
65280;BME280;51878;55.748;48.742;2023-08-21T01:55:46;98702.56;;;13.63;100.00
65280;BME280;51878;55.748;48.742;2023-08-21T02:00:51;98712.69;;;13.56;100.00
65280;BME280;51878;55.748;48.742;2023-08-21T02:05:56;98748.13;;;13.75;100.00
65280;BME280;51878;55.748;48.742;2023-08-21T02:11:01;98724.22;;;13.58;100.00
65280;BME280;51878;55.748;48.742;2023-08-21T02:16:04;98723.41;;;13.51;100.00
65280;BME280;51878;55.748;48.742;2023-08-21T02:21:06;98729.72;;;13.52;100.00
65280;BME280;51878;55.748;48.742;2023-08-21T02:26:08;98740.41;;;13.47;100.00
65280;BME280;51878;55.748;48.742;2023-08-21T02:31:10;98701.47;;;13.21;100.00
65280;BME280;51878;55.748;48.742;2023-08-21T02:36:13;98713.56;;;13.32;100.00
65280;BME280;51878;55.748;48.742;2023-08-21T02:41:17;98693.56;;;13.13;100.00
65280;BME280;51878;55.748;48.742;2023-08-21T02:46:20;98709.75;;;13.08;100.00
65280;BME280;51878;55.748;48.742;2023-08-21T02:51:26;98716.41;;;13.12;100.00
65280;BME280;51878;55.748;48.742;2023-08-21T02:56:28;98746.44;;;13.30;100.00
65280;BME280;51878;55.748;48.742;2023-08-21T03:01:31;98740.38;;;13.28;100.00
65280;BME280;51878;55.748;48.742;2023-08-21T03:06:34;98748.97;;;13.25;100.00
65280;BME280;51878;55.748;48.742;2023-08-21T03:11:36;98741.91;;;13.17;100.00
65280;BME280;51878;55.748;48.742;2023-08-21T03:16:38;98688.06;;;12.94;100.00
65280;BME280;51878;55.748;48.742;2023-08-21T03:21:40;98730.56;;;13.20;100.00
65280;BME280;51878;55.748;48.742;2023-08-21T03:26:42;98769.56;;;13.46;100.00
65280;BME280;51878;55.748;48.742;2023-08-21T03:31:49;98765.53;;;13.49;100.00
65280;BME280;51878;55.748;48.742;2023-08-21T03:36:51;98726.56;;;13.23;100.00
65280;BME280;51878;55.748;48.742;2023-08-21T03:41:54;98757.63;;;13.47;100.00
65280;BME280;51878;55.748;48.742;2023-08-21T03:46:56;98719.84;;;13.26;100.00
65280;BME280;51878;55.748;48.742;2023-08-21T03:51:58;98745.50;;;13.43;100.00
65280;BME280;51878;55.748;48.742;2023-08-21T03:57:00;98747.38;;;13.42;100.00
65280;BME280;51878;55.748;48.742;2023-08-21T04:02:02;98723.19;;;13.28;100.00
65280;BME280;51878;55.748;48.742;2023-08-21T04:07:05;98752.31;;;13.52;100.00
65280;BME280;51878;55.748;48.742;2023-08-21T04:12:08;98757.78;;;13.52;100.00
65280;BME280;51878;55.748;48.742;2023-08-21T04:17:10;98693.91;;;13.23;100.00
65280;BME280;51878;55.748;48.742;2023-08-21T04:22:12;98763.59;;;13.56;100.00
65280;BME280;51878;55.748;48.742;2023-08-21T04:27:15;98698.88;;;13.33;100.00
65280;BME280;51878;55.748;48.742;2023-08-21T04:32:17;98729.41;;;13.60;100.00
65280;BME280;51878;55.748;48.742;2023-08-21T04:37:20;98771.75;;;13.81;100.00
65280;BME280;51878;55.748;48.742;2023-08-21T04:42:22;98727.06;;;13.63;100.00
65280;BME280;51878;55.748;48.742;2023-08-21T04:47:26;98676.25;;;13.32;100.00
65280;BME280;51878;55.748;48.742;2023-08-21T04:52:28;98761.56;;;13.95;100.00
65280;BME280;51878;55.748;48.742;2023-08-21T04:57:30;98758.06;;;14.06;100.00
65280;BME280;51878;55.748;48.742;2023-08-21T05:02:33;98731.22;;;13.91;100.00
65280;BME280;51878;55.748;48.742;2023-08-21T05:07:36;98761.78;;;14.30;100.00
65280;BME280;51878;55.748;48.742;2023-08-21T05:12:38;98745.34;;;14.37;100.00
65280;BME280;51878;55.748;48.742;2023-08-21T05:17:41;98716.59;;;14.22;100.00
65280;BME280;51878;55.748;48.742;2023-08-21T05:22:43;98765.09;;;14.51;100.00
65280;BME280;51878;55.748;48.742;2023-08-21T05:27:45;98699.53;;;14.09;100.00
65280;BME280;51878;55.748;48.742;2023-08-21T05:32:48;98730.06;;;14.36;100.00
65280;BME280;51878;55.748;48.742;2023-08-21T05:37:50;98738.84;;;14.38;100.00
65280;BME280;51878;55.748;48.742;2023-08-21T05:42:55;98738.25;;;14.36;100.00
65280;BME280;51878;55.748;48.742;2023-08-21T05:47:57;98735.03;;;14.39;100.00
65280;BME280;51878;55.748;48.742;2023-08-21T05:52:59;98776.72;;;14.64;100.00
65280;BME280;51878;55.748;48.742;2023-08-21T05:58:03;98736.78;;;14.52;100.00
65280;BME280;51878;55.748;48.742;2023-08-21T06:03:05;98777.88;;;14.87;100.00
65280;BME280;51878;55.748;48.742;2023-08-21T06:08:08;98794.91;;;15.01;100.00
65280;BME280;51878;55.748;48.742;2023-08-21T06:13:10;98794.47;;;15.04;100.00
65280;BME280;51878;55.748;48.742;2023-08-21T06:18:14;98765.25;;;15.04;100.00
65280;BME280;51878;55.748;48.742;2023-08-21T06:23:17;98786.97;;;15.53;100.00
65280;BME280;51878;55.748;48.742;2023-08-21T06:28:19;98793.22;;;15.96;100.00
65280;BME280;51878;55.748;48.742;2023-08-21T06:33:21;98783.56;;;16.28;100.00
65280;BME280;51878;55.748;48.742;2023-08-21T06:38:23;98745.81;;;16.42;100.00
65280;BME280;51878;55.748;48.742;2023-08-21T06:43:26;98791.59;;;16.99;100.00
65280;BME280;51878;55.748;48.742;2023-08-21T06:48:28;98798.22;;;17.32;100.00
65280;BME280;51878;55.748;48.742;2023-08-21T06:53:30;98801.84;;;17.66;100.00
65280;BME280;51878;55.748;48.742;2023-08-21T06:58:33;98791.78;;;17.89;100.00
65280;BME280;51878;55.748;48.742;2023-08-21T07:03:35;98786.06;;;18.29;100.00
65280;BME280;51878;55.748;48.742;2023-08-21T07:08:37;98769.94;;;18.33;100.00
65280;BME280;51878;55.748;48.742;2023-08-21T07:13:42;98778.16;;;18.77;100.00
65280;BME280;51878;55.748;48.742;2023-08-21T07:18:44;98770.91;;;19.15;100.00
65280;BME280;51878;55.748;48.742;2023-08-21T07:23:47;98756.34;;;19.74;100.00
65280;BME280;51878;55.748;48.742;2023-08-21T07:28:49;98747.75;;;20.13;100.00
65280;BME280;51878;55.748;48.742;2023-08-21T07:33:51;98744.50;;;20.21;98.62
65280;BME280;51878;55.748;48.742;2023-08-21T07:38:54;98753.81;;;20.62;100.00
65280;BME280;51878;55.748;48.742;2023-08-21T07:43:56;98823.47;;;21.26;94.08
65280;BME280;51878;55.748;48.742;2023-08-21T07:48:58;98825.75;;;21.55;94.20
65280;BME280;51878;55.748;48.742;2023-08-21T07:54:00;98802.53;;;21.40;91.98
65280;BME280;51878;55.748;48.742;2023-08-21T07:59:02;98773.25;;;21.14;91.25
65280;BME280;51878;55.748;48.742;2023-08-21T08:04:13;98808.19;;;20.88;87.85
65280;BME280;51878;55.748;48.742;2023-08-21T08:09:15;98770.34;;;20.68;92.56
65280;BME280;51878;55.748;48.742;2023-08-21T08:14:18;98807.47;;;21.28;87.31
65280;BME280;51878;55.748;48.742;2023-08-21T08:19:20;98776.34;;;21.84;83.19
65280;BME280;51878;55.748;48.742;2023-08-21T08:24:22;98815.28;;;22.99;74.41
65280;BME280;51878;55.748;48.742;2023-08-21T08:29:25;98781.13;;;23.29;65.03
65280;BME280;51878;55.748;48.742;2023-08-21T08:34:27;98772.41;;;23.51;62.39
65280;BME280;51878;55.748;48.742;2023-08-21T08:39:29;98779.72;;;23.71;59.10
65280;BME280;51878;55.748;48.742;2023-08-21T08:44:34;98813.22;;;23.69;59.20
65280;BME280;51878;55.748;48.742;2023-08-21T08:49:38;98811.41;;;24.23;56.23
65280;BME280;51878;55.748;48.742;2023-08-21T08:54:40;98782.97;;;24.66;52.77
65280;BME280;51878;55.748;48.742;2023-08-21T08:59:42;98766.00;;;24.91;48.87
65280;BME280;51878;55.748;48.742;2023-08-21T09:04:44;98797.47;;;25.25;47.92
65280;BME280;51878;55.748;48.742;2023-08-21T09:09:48;98735.56;;;25.05;46.29
65280;BME280;51878;55.748;48.742;2023-08-21T09:14:55;98788.91;;;25.73;45.12
65280;BME280;51878;55.748;48.742;2023-08-21T09:20:06;98774.53;;;26.04;44.11
65280;BME280;51878;55.748;48.742;2023-08-21T09:25:09;98786.13;;;26.94;41.86
65280;BME280;51878;55.748;48.742;2023-08-21T09:30:12;98787.28;;;26.37;40.83
65280;BME280;51878;55.748;48.742;2023-08-21T09:35:16;98774.75;;;25.93;42.00
65280;BME280;51878;55.748;48.742;2023-08-21T09:40:20;98771.41;;;25.40;43.46
65280;BME280;51878;55.748;48.742;2023-08-21T09:45:25;98795.69;;;26.32;43.16
65280;BME280;51878;55.748;48.742;2023-08-21T09:50:29;98765.97;;;26.61;41.02
65280;BME280;51878;55.748;48.742;2023-08-21T09:55:32;98777.72;;;26.71;40.75
65280;BME280;51878;55.748;48.742;2023-08-21T10:00:36;98772.50;;;26.09;41.09
65280;BME280;51878;55.748;48.742;2023-08-21T10:05:39;98788.38;;;25.38;42.55
65280;BME280;51878;55.748;48.742;2023-08-21T10:10:41;98753.88;;;24.63;44.61
65280;BME280;51878;55.748;48.742;2023-08-21T10:15:44;98784.00;;;25.89;44.87
65280;BME280;51878;55.748;48.742;2023-08-21T10:20:50;98737.41;;;27.55;39.97
65280;BME280;51878;55.748;48.742;2023-08-21T10:26:00;98737.59;;;28.93;37.07
65280;BME280;51878;55.748;48.742;2023-08-21T10:31:25;98741.25;;;29.45;34.04
65280;BME280;51878;55.748;48.742;2023-08-21T10:41:56;98771.38;;;30.69;32.27
65280;BME280;51878;55.748;48.742;2023-08-21T10:47:21;98766.06;;;32.11;29.97
65280;BME280;51878;55.748;48.742;2023-08-21T10:52:27;98720.72;;;32.46;28.58
65280;BME280;51878;55.748;48.742;2023-08-21T10:57:31;98720.13;;;31.07;29.93
65280;BME280;51878;55.748;48.742;2023-08-21T11:02:35;98718.88;;;29.54;31.81
65280;BME280;51878;55.748;48.742;2023-08-21T11:07:41;98749.59;;;29.02;32.89
65280;BME280;51878;55.748;48.742;2023-08-21T11:12:56;98749.78;;;28.17;32.36
65280;BME280;51878;55.748;48.742;2023-08-21T11:18:00;98721.47;;;26.61;34.42
65280;BME280;51878;55.748;48.742;2023-08-21T11:23:05;98720.75;;;26.00;34.77
65280;BME280;51878;55.748;48.742;2023-08-21T11:28:11;98710.75;;;26.40;35.62
65280;BME280;51878;55.748;48.742;2023-08-21T11:33:13;98732.34;;;28.91;32.83
65280;BME280;51878;55.748;48.742;2023-08-21T11:38:23;98721.72;;;30.96;27.81
65280;BME280;51878;55.748;48.742;2023-08-21T11:43:40;98725.41;;;32.42;27.09
65280;BME280;51878;55.748;48.742;2023-08-21T11:48:44;98696.53;;;33.59;25.26
65280;BME280;51878;55.748;48.742;2023-08-21T11:53:50;98704.19;;;35.02;23.46
65280;BME280;51878;55.748;48.742;2023-08-21T11:58:52;98712.00;;;34.73;22.74
65280;BME280;51878;55.748;48.742;2023-08-21T12:03:54;98711.34;;;34.64;22.99
65280;BME280;51878;55.748;48.742;2023-08-21T12:09:06;98622.63;;;35.28;21.66
65280;BME280;51878;55.748;48.742;2023-08-21T12:14:08;98694.81;;;35.33;21.38
65280;BME280;51878;55.748;48.742;2023-08-21T12:19:11;98727.16;;;37.20;20.47
65280;BME280;51878;55.748;48.742;2023-08-21T12:24:16;98728.44;;;37.26;18.68
65280;BME280;51878;55.748;48.742;2023-08-21T12:29:18;98681.09;;;36.93;19.58
65280;BME280;51878;55.748;48.742;2023-08-21T12:34:24;98715.88;;;37.54;18.78
65280;BME280;51878;55.748;48.742;2023-08-21T12:39:26;98682.09;;;37.68;18.91
65280;BME280;51878;55.748;48.742;2023-08-21T12:44:28;98706.81;;;37.71;18.69
65280;BME280;51878;55.748;48.742;2023-08-21T12:49:30;98715.66;;;38.03;17.74
65280;BME280;51878;55.748;48.742;2023-08-21T12:54:33;98679.00;;;37.80;17.98
65280;BME280;51878;55.748;48.742;2023-08-21T12:59:35;98697.22;;;37.83;17.23
65280;BME280;51878;55.748;48.742;2023-08-21T13:04:38;98698.13;;;38.35;17.72
65280;BME280;51878;55.748;48.742;2023-08-21T13:09:40;98692.94;;;38.41;17.00
65280;BME280;51878;55.748;48.742;2023-08-21T13:14:42;98658.19;;;36.98;17.36
65280;BME280;51878;55.748;48.742;2023-08-21T13:19:45;98665.19;;;37.75;17.16
65280;BME280;51878;55.748;48.742;2023-08-21T13:24:47;98701.44;;;38.44;16.83
65280;BME280;51878;55.748;48.742;2023-08-21T13:29:49;98692.53;;;38.98;16.95
65280;BME280;51878;55.748;48.742;2023-08-21T13:34:54;98694.47;;;38.83;16.64
65280;BME280;51878;55.748;48.742;2023-08-21T13:39:57;98689.00;;;39.12;16.79
65280;BME280;51878;55.748;48.742;2023-08-21T13:45:01;98676.19;;;38.80;16.76
65280;BME280;51878;55.748;48.742;2023-08-21T13:50:10;98693.47;;;39.20;15.98
65280;BME280;51878;55.748;48.742;2023-08-21T13:55:14;98672.06;;;38.63;16.65
65280;BME280;51878;55.748;48.742;2023-08-21T14:00:17;98688.91;;;37.63;17.50
65280;BME280;51878;55.748;48.742;2023-08-21T14:05:20;98652.88;;;35.51;19.20
65280;BME280;51878;55.748;48.742;2023-08-21T14:10:23;98646.41;;;32.92;22.18
65280;BME280;51878;55.748;48.742;2023-08-21T14:15:25;98665.09;;;30.81;24.19
65280;BME280;51878;55.748;48.742;2023-08-21T14:20:27;98679.91;;;30.31;25.90
65280;BME280;51878;55.748;48.742;2023-08-21T14:25:30;98679.34;;;30.08;26.36
65280;BME280;51878;55.748;48.742;2023-08-21T14:30:33;98690.84;;;30.75;25.90
65280;BME280;51878;55.748;48.742;2023-08-21T14:35:36;98667.66;;;31.16;25.59
65280;BME280;51878;55.748;48.742;2023-08-21T14:40:38;98672.56;;;31.74;24.68
65280;BME280;51878;55.748;48.742;2023-08-21T14:45:40;98670.38;;;30.23;25.71
65280;BME280;51878;55.748;48.742;2023-08-21T14:50:45;98644.41;;;28.45;27.77
65280;BME280;51878;55.748;48.742;2023-08-21T14:55:47;98672.03;;;27.53;29.81
65280;BME280;51878;55.748;48.742;2023-08-21T15:00:53;98635.56;;;27.94;29.32
65280;BME280;51878;55.748;48.742;2023-08-21T15:05:56;98613.94;;;28.75;29.04
65280;BME280;51878;55.748;48.742;2023-08-21T15:10:58;98667.13;;;29.65;28.41
65280;BME280;51878;55.748;48.742;2023-08-21T15:16:00;98676.81;;;28.72;29.91
65280;BME280;51878;55.748;48.742;2023-08-21T15:21:03;98666.03;;;27.14;32.08
65280;BME280;51878;55.748;48.742;2023-08-21T15:26:11;98626.94;;;25.31;34.46
65280;BME280;51878;55.748;48.742;2023-08-21T15:31:23;98659.53;;;24.25;36.48
65280;BME280;51878;55.748;48.742;2023-08-21T15:36:29;98685.63;;;23.37;39.04
65280;BME280;51878;55.748;48.742;2023-08-21T15:41:31;98673.16;;;22.55;40.42
65280;BME280;51878;55.748;48.742;2023-08-21T15:46:33;98684.66;;;22.23;41.89
65280;BME280;51878;55.748;48.742;2023-08-21T15:51:35;98671.19;;;21.80;42.99
65280;BME280;51878;55.748;48.742;2023-08-21T15:56:38;98695.84;;;21.41;44.22
65280;BME280;51878;55.748;48.742;2023-08-21T16:01:40;98642.53;;;20.69;44.65
65280;BME280;51878;55.748;48.742;2023-08-21T16:06:44;98694.56;;;20.55;45.98
65280;BME280;51878;55.748;48.742;2023-08-21T16:11:49;98657.63;;;19.88;46.35
65280;BME280;51878;55.748;48.742;2023-08-21T16:16:51;98697.94;;;19.67;47.52
65280;BME280;51878;55.748;48.742;2023-08-21T16:21:56;98673.28;;;19.07;49.32
65280;BME280;51878;55.748;48.742;2023-08-21T16:26:59;98699.53;;;18.93;50.58
65280;BME280;51878;55.748;48.742;2023-08-21T16:32:03;98664.91;;;18.43;51.93
65280;BME280;51878;55.748;48.742;2023-08-21T16:37:08;98711.56;;;18.43;53.49
65280;BME280;51878;55.748;48.742;2023-08-21T16:42:10;98697.28;;;18.18;54.67
65280;BME280;51878;55.748;48.742;2023-08-21T16:47:12;98712.28;;;18.11;56.63
65280;BME280;51878;55.748;48.742;2023-08-21T16:57:21;98684.59;;;17.56;58.83
65280;BME280;51878;55.748;48.742;2023-08-21T17:02:23;98717.84;;;17.60;59.63
65280;BME280;51878;55.748;48.742;2023-08-21T17:07:28;98709.53;;;17.38;62.09
65280;BME280;51878;55.748;48.742;2023-08-21T17:12:33;98674.66;;;17.00;64.34
65280;BME280;51878;55.748;48.742;2023-08-21T17:17:36;98717.25;;;17.07;67.21
65280;BME280;51878;55.748;48.742;2023-08-21T17:22:38;98674.34;;;16.67;69.15
65280;BME280;51878;55.748;48.742;2023-08-21T17:27:43;98678.19;;;16.55;70.29
65280;BME280;51878;55.748;48.742;2023-08-21T17:32:46;98710.50;;;16.69;70.36
65280;BME280;51878;55.748;48.742;2023-08-21T17:37:48;98673.75;;;16.37;72.30
65280;BME280;51878;55.748;48.742;2023-08-21T17:42:50;98680.31;;;16.24;74.82
65280;BME280;51878;55.748;48.742;2023-08-21T17:47:55;98718.34;;;16.37;74.90
65280;BME280;51878;55.748;48.742;2023-08-21T17:52:58;98716.97;;;16.23;75.09
65280;BME280;51878;55.748;48.742;2023-08-21T17:58:05;98712.00;;;16.08;76.78
65280;BME280;51878;55.748;48.742;2023-08-21T18:03:07;98710.72;;;15.99;78.08
65280;BME280;51878;55.748;48.742;2023-08-21T18:08:09;98660.81;;;15.56;77.95
65280;BME280;51878;55.748;48.742;2023-08-21T18:13:12;98711.34;;;15.77;79.88
65280;BME280;51878;55.748;48.742;2023-08-21T18:18:14;98699.66;;;15.58;80.93
65280;BME280;51878;55.748;48.742;2023-08-21T18:23:19;98666.63;;;15.24;79.00
65280;BME280;51878;55.748;48.742;2023-08-21T18:28:25;98724.72;;;15.55;80.53
65280;BME280;51878;55.748;48.742;2023-08-21T18:33:28;98717.97;;;15.46;80.74
65280;BME280;51878;55.748;48.742;2023-08-21T18:38:30;98677.91;;;15.16;82.26
65280;BME280;51878;55.748;48.742;2023-08-21T18:43:36;98711.88;;;15.20;83.33
65280;BME280;51878;55.748;48.742;2023-08-21T18:48:38;98715.66;;;15.19;81.83
65280;BME280;51878;55.748;48.742;2023-08-21T18:53:42;98722.41;;;15.17;81.63
65280;BME280;51878;55.748;48.742;2023-08-21T18:58:45;98724.56;;;15.15;82.30
65280;BME280;51878;55.748;48.742;2023-08-21T19:03:51;98679.72;;;14.80;83.30
65280;BME280;51878;55.748;48.742;2023-08-21T19:08:54;98720.84;;;14.97;83.14
65280;BME280;51878;55.748;48.742;2023-08-21T19:13:58;98719.16;;;14.84;83.75
65280;BME280;51878;55.748;48.742;2023-08-21T19:19:00;98717.66;;;14.70;83.63
65280;BME280;51878;55.748;48.742;2023-08-21T19:24:03;98719.28;;;14.59;84.29
65280;BME280;51878;55.748;48.742;2023-08-21T19:29:06;98675.00;;;14.27;85.16
65280;BME280;51878;55.748;48.742;2023-08-21T19:34:08;98708.97;;;14.43;85.48
65280;BME280;51878;55.748;48.742;2023-08-21T19:39:10;98714.81;;;14.46;84.52
65280;BME280;51878;55.748;48.742;2023-08-21T19:44:13;98643.38;;;14.08;83.31
65280;BME280;51878;55.748;48.742;2023-08-21T19:49:15;98711.78;;;14.55;82.94
65280;BME280;51878;55.748;48.742;2023-08-21T19:54:17;98708.66;;;14.51;83.16
65280;BME280;51878;55.748;48.742;2023-08-21T19:59:22;98700.00;;;14.54;83.20
65280;BME280;51878;55.748;48.742;2023-08-21T20:04:24;98713.81;;;14.59;83.55
65280;BME280;51878;55.748;48.742;2023-08-21T20:09:27;98688.38;;;14.47;82.82
65280;BME280;51878;55.748;48.742;2023-08-21T20:14:29;98724.53;;;14.73;80.81
65280;BME280;51878;55.748;48.742;2023-08-21T20:19:31;98724.31;;;14.74;79.90
65280;BME280;51878;55.748;48.742;2023-08-21T20:24:33;98700.94;;;14.66;79.16
65280;BME280;51878;55.748;48.742;2023-08-21T20:29:36;98715.81;;;14.82;78.71
65280;BME280;51878;55.748;48.742;2023-08-21T20:34:38;98709.03;;;14.73;77.15
65280;BME280;51878;55.748;48.742;2023-08-21T20:39:40;98710.91;;;14.73;76.25
65280;BME280;51878;55.748;48.742;2023-08-21T20:44:43;98689.72;;;14.56;74.79
65280;BME280;51878;55.748;48.742;2023-08-21T20:49:48;98656.75;;;14.27;73.94
65280;BME280;51878;55.748;48.742;2023-08-21T20:54:50;98707.00;;;14.50;73.27
65280;BME280;51878;55.748;48.742;2023-08-21T20:59:52;98691.63;;;14.37;72.78
65280;BME280;51878;55.748;48.742;2023-08-21T21:04:54;98665.09;;;14.14;72.45
65280;BME280;51878;55.748;48.742;2023-08-21T21:09:57;98674.69;;;14.17;72.54
65280;BME280;51878;55.748;48.742;2023-08-21T21:15:00;98657.91;;;14.01;73.65
65280;BME280;51878;55.748;48.742;2023-08-21T21:20:08;98673.97;;;14.10;74.82
65280;BME280;51878;55.748;48.742;2023-08-21T21:25:13;98651.94;;;13.93;74.79
65280;BME280;51878;55.748;48.742;2023-08-21T21:30:16;98674.88;;;14.03;74.32
65280;BME280;51878;55.748;48.742;2023-08-21T21:35:18;98612.47;;;13.65;73.85
65280;BME280;51878;55.748;48.742;2023-08-21T21:40:21;98672.06;;;14.10;72.93
65280;BME280;51878;55.748;48.742;2023-08-21T21:45:23;98691.88;;;14.17;72.19
65280;BME280;51878;55.748;48.742;2023-08-21T21:50:26;98689.75;;;14.19;71.83
65280;BME280;51878;55.748;48.742;2023-08-21T21:55:28;98674.47;;;14.18;71.88
65280;BME280;51878;55.748;48.742;2023-08-21T22:00:32;98670.41;;;14.09;72.10
65280;BME280;51878;55.748;48.742;2023-08-21T22:05:34;98671.22;;;14.10;72.57
65280;BME280;51878;55.748;48.742;2023-08-21T22:10:36;98629.84;;;13.82;73.77
65280;BME280;51878;55.748;48.742;2023-08-21T22:15:39;98676.09;;;14.08;74.44
65280;BME280;51878;55.748;48.742;2023-08-21T22:20:41;98639.06;;;13.81;75.80
65280;BME280;51878;55.748;48.742;2023-08-21T22:25:43;98661.41;;;13.90;76.34
65280;BME280;51878;55.748;48.742;2023-08-21T22:30:46;98676.84;;;13.96;77.20
65280;BME280;51878;55.748;48.742;2023-08-21T22:35:50;98639.38;;;13.73;77.96
65280;BME280;51878;55.748;48.742;2023-08-21T22:40:53;98666.78;;;13.78;78.85
65280;BME280;51878;55.748;48.742;2023-08-21T22:45:55;98638.09;;;13.57;78.77
65280;BME280;51878;55.748;48.742;2023-08-21T22:51:02;98684.72;;;13.86;79.05
65280;BME280;51878;55.748;48.742;2023-08-21T22:56:05;98643.75;;;13.56;79.50
65280;BME280;51878;55.748;48.742;2023-08-21T23:01:07;98672.13;;;13.67;79.34
65280;BME280;51878;55.748;48.742;2023-08-21T23:06:10;98670.56;;;13.59;79.11
65280;BME280;51878;55.748;48.742;2023-08-21T23:11:12;98635.97;;;13.41;78.01
65280;BME280;51878;55.748;48.742;2023-08-21T23:16:15;98665.78;;;13.54;77.21
65280;BME280;51878;55.748;48.742;2023-08-21T23:21:19;98568.78;;;12.91;77.05
65280;BME280;51878;55.748;48.742;2023-08-21T23:26:22;98632.94;;;13.24;76.90
65280;BME280;51878;55.748;48.742;2023-08-21T23:31:24;98622.66;;;13.08;76.24
65280;BME280;51878;55.748;48.742;2023-08-21T23:36:26;98623.13;;;12.98;76.05
65280;BME280;51878;55.748;48.742;2023-08-21T23:41:29;98655.97;;;13.03;76.33
65280;BME280;51878;55.748;48.742;2023-08-21T23:46:31;98680.84;;;13.07;76.94
65280;BME280;51878;55.748;48.742;2023-08-21T23:51:33;98633.41;;;12.71;77.78
65280;BME280;51878;55.748;48.742;2023-08-21T23:56:36;98649.72;;;12.71;79.71
